Fort Myers, FL

5:35 PM EDT en Agosto 29, 2016 (GMT -0400)
Fort Myers | | Change Station

Alt 0 ft 26.64 °N, 81.87 °W | Updated 4 minutes ago

Partly Cloudy
Parcialmente nublado
80.1 ° F
Sensación térmica 85 ° F
N
1.9
Viento Variable Viento desde SSO
Gusts 4.3 mph

Hoy
Alta -- | Baja -- ° F
--% Posibilidad de precipitaciones
Ayer
Alta -- | Baja -- ° F
Precip. -- pul
Presión 29.86 pul
Visibilidad 10.0 Millas
Nubes Baja 9500 ft
Baja 11000 ft
Índice de calor 85 ° F
Punto de rocío 76 ° F
Humedad 87%
Precipitaciones 0.47 pul
Espesor de la nieve No disponible.
7:06 AM 7:49 PM
Creciente menguante, 7% visible
METAR KFMY 292053Z 18003KT 10SM FEW095 FEW110 26/24 A2985 RMK AO2 LTG DSNT NE RAE39 TSE03 SLP111 P0006 60078 T02560239 58014
Presión 29.86 pul
Visibilidad 10.0 Millas
Nubes Baja 9500 ft
Baja 11000 ft
Índice de calor 85 ° F
Punto de rocío 76 ° F
Humedad 87%
Precipitaciones 0.47 pul
Espesor de la nieve No disponible.
7:06 AM 7:49 PM
Creciente menguante, 7% visible
METAR KFMY 292053Z 18003KT 10SM FEW095 FEW110 26/24 A2985 RMK AO2 LTG DSNT NE RAE39 TSE03 SLP111 P0006 60078 T02560239 58014
Tropical Depression Nine was centered about 170 miles west-southwest of Key West, Florida, as of late Monday morning. The depression may struggle a bit in the southern Gulf of Mexico before finally making a Gulf Coast landfall later this week with soaking rain and gusty winds.

This latest system was designated a tropical depression Sunday after a Hurricane Hunter reconnaissance mission finally found a sufficiently organized low-pressure center with collocated shower and thunderstorm activity.

10-Day Weather Forecast

Almanac

Astronomía

Aug. 29, 2016 Salida Puesta
Hora real
Crepúsculo civil
Crepúsculo náutico
Crepúsculo astronómico
Luna
Horas de luz
Horas de luz
Tomorrow will be .
, % of the Moon is Illuminated

Extremos de hoy

Máximos del estado Bajos del estado

Community

WunderPhotos

Upload Photos

1,935,679 ¡fotos cargadas!

WunderBlog® & News

Nearby

Calidad del aire

  Calidad del aire Índice AQ Contaminante
Not available.

Grosos de nieve

Estación Profundido Altura

Actividad de terremotos

Ciudad Distance Mag. Tiempo y dato
Magnitud mínima muestra es 2,5.

Temperaturas de aguas costeras

Lugar Temperatura

Stations

Estaciones meteorológicas cercanas

Ubicación de la estación Temp. Vientos helados Punto de rocío Humedad Viento Precip. Alt Actualizado Tipo
                   

Watches & Warnings

There are currently no watches in effect.